Time;durP1;ratioP1;P1;durP2;ratioP2;P2;SDS_P1;SDS_P2;PMS_P1;PMS_P2;Temp;Humidity;BMP_temperature;BMP_pressure;BME280_temperature;BME280_humidity;BME280_pressure;Samples;Min_cycle;Max_cycle;Signal;HPM_P1;HPM_P2
2023/12/14 00:02:17;;;;;;;1.97;1.87;;;10.10;46.90;;;;;;10416439;28;20238;-77
2023/12/14 00:07:20;;;;;;;2.50;2.30;;;10.10;47.00;;;;;;10419176;28;20229;-77
2023/12/14 00:12:26;;;;;;;2.80;2.60;;;10.10;47.00;;;;;;10444967;28;20224;-77
2023/12/14 00:17:29;;;;;;;2.97;2.77;;;10.20;47.00;;;;;;10447994;28;20260;-77
2023/12/14 00:22:32;;;;;;;2.90;2.70;;;10.20;46.80;;;;;;10449471;28;20237;-77
2023/12/14 00:27:37;;;;;;;2.90;2.70;;;10.20;46.90;;;;;;10448410;28;20727;-77
2023/12/14 00:32:42;;;;;;;2.47;2.27;;;10.20;47.00;;;;;;10449443;28;20237;-77
2023/12/14 00:37:45;;;;;;;2.63;2.43;;;10.20;47.00;;;;;;10447882;28;20233;-77
2023/12/14 00:42:51;;;;;;;2.83;2.63;;;10.20;47.10;;;;;;10448685;28;20323;-77
2023/12/14 00:47:54;;;;;;;2.73;2.53;;;10.20;47.10;;;;;;10448670;28;20753;-77
2023/12/14 00:52:57;;;;;;;2.93;2.77;;;10.30;47.10;;;;;;10449277;28;20233;-77
2023/12/14 00:58:02;;;;;;;2.93;2.73;;;10.30;47.10;;;;;;10448287;28;20241;-78
2023/12/14 01:03:05;;;;;;;3.00;2.80;;;10.20;47.20;;;;;;10448116;28;20621;-77
2023/12/14 01:08:08;;;;;;;3.27;3.07;;;10.30;47.50;;;;;;10447224;28;20245;-77
2023/12/14 01:13:14;;;;;;;3.40;3.20;;;10.30;47.40;;;;;;10448104;28;20232;-77
2023/12/14 01:18:17;;;;;;;3.70;3.40;;;10.30;47.40;;;;;;10446817;28;20236;-77
2023/12/14 01:23:21;;;;;;;3.70;3.50;;;10.30;47.30;;;;;;10447141;28;20241;-77
2023/12/14 01:28:25;;;;;;;3.90;3.60;;;10.30;47.50;;;;;;10446281;28;20274;-77
2023/12/14 01:33:28;;;;;;;4.10;3.80;;;10.30;47.40;;;;;;10447500;28;20244;-77
2023/12/14 01:38:32;;;;;;;4.20;3.90;;;10.30;47.40;;;;;;10446106;28;20229;-77
2023/12/14 01:43:36;;;;;;;4.40;4.10;;;10.30;47.20;;;;;;10446804;28;20583;-77
2023/12/14 01:48:39;;;;;;;4.43;4.10;;;10.30;47.40;;;;;;10445956;28;20719;-77
2023/12/14 01:53:42;;;;;;;4.60;4.30;;;10.30;47.40;;;;;;10446400;28;20665;-77
2023/12/14 01:58:47;;;;;;;4.87;4.57;;;10.30;47.40;;;;;;10445304;28;20725;-77
2023/12/14 02:03:52;;;;;;;5.10;4.70;;;10.30;47.40;;;;;;10446117;28;20229;-77
2023/12/14 02:08:56;;;;;;;4.63;4.33;;;10.40;47.40;;;;;;10444555;28;20237;-77
2023/12/14 02:14:04;;;;;;;4.77;4.47;;;10.40;47.40;;;;;;10445499;28;20239;-77
2023/12/14 02:19:07;;;;;;;4.60;4.30;;;10.40;47.30;;;;;;10444176;28;20669;-77
2023/12/14 02:24:12;;;;;;;4.23;3.93;;;10.40;47.20;;;;;;10445185;28;20635;-77
2023/12/14 02:29:15;;;;;;;4.27;3.97;;;10.40;47.30;;;;;;10444021;28;20239;-77
2023/12/14 02:34:20;;;;;;;4.43;4.13;;;10.30;47.30;;;;;;10444417;28;20716;-77
2023/12/14 02:39:25;;;;;;;4.57;4.27;;;10.30;47.20;;;;;;10444030;28;20653;-77
2023/12/14 02:44:28;;;;;;;4.67;4.37;;;10.30;47.20;;;;;;10444766;28;20317;-77
2023/12/14 02:49:31;;;;;;;4.57;4.17;;;10.20;47.00;;;;;;10443812;28;20583;-77
2023/12/14 02:54:39;;;;;;;4.30;4.00;;;10.20;47.20;;;;;;10444439;28;20233;-77
2023/12/14 02:59:42;;;;;;;4.50;4.20;;;10.20;47.40;;;;;;10443739;28;20221;-77
2023/12/14 03:04:45;;;;;;;4.40;4.10;;;10.20;47.40;;;;;;10443962;28;20235;-77
2023/12/14 03:09:50;;;;;;;4.80;4.40;;;10.20;47.30;;;;;;10443071;28;20233;-77
2023/12/14 03:14:53;;;;;;;5.20;4.80;;;10.20;47.30;;;;;;10443419;28;20252;-77
2023/12/14 03:19:56;;;;;;;6.57;6.07;;;10.20;47.20;;;;;;10442227;28;20319;-78
2023/12/14 03:25:01;;;;;;;7.23;6.60;;;10.20;47.30;;;;;;10443091;28;20588;-77
2023/12/14 03:30:07;;;;;;;6.70;6.20;;;10.10;47.40;;;;;;10441717;28;20232;-77
2023/12/14 03:35:11;;;;;;;7.60;7.00;;;10.10;47.40;;;;;;10443088;28;20722;-77
2023/12/14 03:40:16;;;;;;;7.93;7.33;;;10.00;47.30;;;;;;10441623;28;20244;-77
2023/12/14 03:45:19;;;;;;;8.20;7.50;;;10.00;47.50;;;;;;10444029;28;20239;-77
2023/12/14 03:50:22;;;;;;;8.37;7.67;;;10.00;47.50;;;;;;10450294;28;20233;-77
2023/12/14 03:55:27;;;;;;;8.00;7.30;;;9.90;48.40;;;;;;10450808;28;20735;-77
2023/12/14 04:00:30;;;;;;;7.70;7.10;;;9.90;48.60;;;;;;10449954;28;20233;-77
2023/12/14 04:05:33;;;;;;;7.97;7.27;;;9.80;48.70;;;;;;10450401;28;20237;-77
2023/12/14 04:10:38;;;;;;;7.27;6.73;;;9.80;48.70;;;;;;10449645;28;20232;-77
2023/12/14 04:15:43;;;;;;;7.20;6.60;;;9.80;49.00;;;;;;10450154;28;20244;-77
2023/12/14 04:20:46;;;;;;;7.57;6.93;;;9.70;48.90;;;;;;10449535;28;20229;-77
2023/12/14 04:25:50;;;;;;;7.27;6.67;;;9.70;48.80;;;;;;10449409;28;20233;-77
2023/12/14 04:30:54;;;;;;;8.07;7.43;;;9.70;49.00;;;;;;10448596;28;20950;-77
2023/12/14 04:35:57;;;;;;;7.80;7.10;;;9.70;48.90;;;;;;10449136;28;20805;-77
2023/12/14 04:41:01;;;;;;;7.90;7.20;;;9.80;49.00;;;;;;10448773;28;20779;-77
2023/12/14 04:46:05;;;;;;;8.27;7.67;;;9.80;48.90;;;;;;10448735;28;20229;-77
2023/12/14 04:51:13;;;;;;;7.97;7.37;;;9.80;48.80;;;;;;10448615;28;20257;-77
2023/12/14 04:56:17;;;;;;;8.33;7.73;;;9.80;48.90;;;;;;10447939;28;20237;-77
2023/12/14 05:01:21;;;;;;;8.40;7.80;;;9.90;48.90;;;;;;10448023;28;20229;-77
2023/12/14 05:06:24;;;;;;;8.50;7.83;;;9.90;48.70;;;;;;10448649;28;20324;-77
2023/12/14 05:11:29;;;;;;;8.73;8.03;;;9.90;48.80;;;;;;10447674;28;20235;-77
2023/12/14 05:16:32;;;;;;;8.57;7.90;;;9.90;48.80;;;;;;10447934;28;20316;-77
2023/12/14 05:21:35;;;;;;;9.77;9.00;;;9.90;48.70;;;;;;10447848;28;20225;-77
2023/12/14 05:26:41;;;;;;;9.47;8.33;;;9.90;48.70;;;;;;10446924;28;20244;-77
2023/12/14 05:31:44;;;;;;;10.83;9.93;;;9.80;48.70;;;;;;10447323;28;20240;-78
2023/12/14 05:36:47;;;;;;;9.13;8.33;;;9.80;48.70;;;;;;10446716;28;20237;-78
2023/12/14 05:41:52;;;;;;;9.50;8.70;;;9.90;48.70;;;;;;10446713;28;20229;-78
2023/12/14 05:46:55;;;;;;;9.77;8.87;;;9.90;48.70;;;;;;10447416;28;20296;-79
2023/12/14 05:52:00;;;;;;;8.83;8.10;;;9.90;48.60;;;;;;10438004;28;20659;-79
2023/12/14 05:57:05;;;;;;;9.33;8.50;;;9.90;48.50;;;;;;10424852;28;20240;-79
2023/12/14 06:02:08;;;;;;;9.33;8.53;;;10.00;47.70;;;;;;10425310;28;20237;-79
2023/12/14 06:07:12;;;;;;;10.03;9.03;;;10.00;47.60;;;;;;10430483;28;20237;-78
2023/12/14 06:12:17;;;;;;;9.40;8.60;;;10.00;47.50;;;;;;10435727;28;20244;-79
2023/12/14 06:17:20;;;;;;;9.30;8.53;;;9.90;49.00;;;;;;10427412;28;21209;-79
2023/12/14 06:22:23;;;;;;;9.43;8.73;;;9.90;48.70;;;;;;10429317;28;20244;-79
2023/12/14 06:27:28;;;;;;;10.00;9.20;;;9.90;48.40;;;;;;10424788;28;20236;-79
2023/12/14 06:32:31;;;;;;;9.37;8.60;;;9.90;48.50;;;;;;10423499;28;20233;-78
2023/12/14 06:37:35;;;;;;;9.67;8.87;;;10.00;47.50;;;;;;10420053;28;20259;-77
2023/12/14 06:42:39;;;;;;;9.47;8.67;;;9.90;48.40;;;;;;10427868;28;20310;-78
2023/12/14 06:47:44;;;;;;;9.20;8.50;;;9.90;48.30;;;;;;10427605;28;20267;-77
2023/12/14 06:52:47;;;;;;;9.63;8.83;;;9.80;48.30;;;;;;10428661;28;20233;-77
2023/12/14 06:57:52;;;;;;;9.33;8.63;;;9.80;48.40;;;;;;10424692;28;20655;-77
2023/12/14 07:02:55;;;;;;;8.93;8.13;;;9.90;48.60;;;;;;10435721;28;20320;-77
2023/12/14 07:07:58;;;;;;;8.17;7.47;;;9.90;48.40;;;;;;10437002;28;20245;-77
2023/12/14 07:13:03;;;;;;;10.37;9.40;;;9.80;48.40;;;;;;10433298;28;20232;-77
2023/12/14 07:18:06;;;;;;;9.63;8.83;;;9.80;48.60;;;;;;10437192;28;20304;-76
2023/12/14 07:23:09;;;;;;;8.63;7.93;;;9.70;48.60;;;;;;10423815;28;20229;-78
2023/12/14 07:28:14;;;;;;;8.80;8.10;;;9.80;48.70;;;;;;10435173;28;20235;-78
2023/12/14 07:33:17;;;;;;;8.90;8.20;;;9.80;48.70;;;;;;10435948;28;20319;-77
2023/12/14 07:38:21;;;;;;;8.97;8.27;;;9.80;48.50;;;;;;10438605;28;20244;-77
2023/12/14 07:43:26;;;;;;;8.73;8.03;;;9.80;48.50;;;;;;10446137;28;20231;-76
2023/12/14 07:48:29;;;;;;;8.10;7.50;;;9.80;48.50;;;;;;10445664;28;20324;-76
2023/12/14 07:53:33;;;;;;;8.17;7.47;;;9.80;48.50;;;;;;10444748;28;20308;-76
2023/12/14 07:58:37;;;;;;;7.93;7.33;;;9.80;48.50;;;;;;10436434;28;20607;-77
2023/12/14 08:03:41;;;;;;;7.97;7.27;;;9.90;48.50;;;;;;10440458;28;20239;-78
2023/12/14 08:08:44;;;;;;;7.67;6.97;;;9.80;48.40;;;;;;10437651;28;20232;-78
2023/12/14 08:13:49;;;;;;;7.83;7.17;;;9.80;48.50;;;;;;10434841;28;20252;-79
2023/12/14 08:18:52;;;;;;;7.57;6.97;;;9.70;48.60;;;;;;10443340;28;20256;-77
2023/12/14 08:23:55;;;;;;;7.20;6.60;;;9.80;48.80;;;;;;10435709;28;20233;-78
2023/12/14 08:29:00;;;;;;;6.70;6.20;;;9.80;48.90;;;;;;10427701;28;20316;-77
2023/12/14 08:34:04;;;;;;;6.97;6.33;;;9.80;48.90;;;;;;10438674;28;20311;-77
2023/12/14 08:39:07;;;;;;;6.73;6.23;;;9.80;48.80;;;;;;10458404;28;20237;-78
2023/12/14 08:44:12;;;;;;;6.30;5.70;;;9.80;48.80;;;;;;10456196;28;20253;-79
2023/12/14 08:49:16;;;;;;;5.97;5.47;;;9.80;49.00;;;;;;10446750;28;20233;-76
2023/12/14 08:54:19;;;;;;;5.80;5.30;;;9.80;49.00;;;;;;10442205;28;20712;-77
2023/12/14 08:59:23;;;;;;;6.53;5.83;;;9.80;49.10;;;;;;10443682;28;20244;-77
2023/12/14 09:04:27;;;;;;;5.83;5.33;;;9.80;49.30;;;;;;10445196;28;20233;-77
2023/12/14 09:09:30;;;;;;;6.67;6.07;;;9.90;49.10;;;;;;10448106;28;20320;-77
2023/12/14 09:14:35;;;;;;;6.50;6.00;;;9.90;49.00;;;;;;10447184;28;20780;-76
2023/12/14 09:19:38;;;;;;;6.00;5.50;;;9.90;49.20;;;;;;10437392;28;20252;-76
2023/12/14 09:24:41;;;;;;;6.37;5.83;;;10.00;48.40;;;;;;10432495;28;20252;-78
2023/12/14 09:29:47;;;;;;;6.37;5.70;;;10.00;48.30;;;;;;10439719;28;20225;-76
2023/12/14 09:34:51;;;;;;;6.47;5.93;;;10.10;48.60;;;;;;10432523;28;20715;-78
2023/12/14 09:39:55;;;;;;;5.77;5.30;;;10.10;48.80;;;;;;10441944;28;20745;-77
2023/12/14 09:45:00;;;;;;;6.03;5.37;;;10.20;49.00;;;;;;10443075;28;20641;-76
2023/12/14 09:50:04;;;;;;;5.57;5.10;;;10.30;48.70;;;;;;10446891;28;20679;-76
2023/12/14 09:55:08;;;;;;;6.50;6.00;;;10.40;48.70;;;;;;10444629;28;20639;-77
2023/12/14 10:00:33;;;;;;;6.00;5.50;;;10.50;48.50;;;;;;10443848;28;20237;-78
2023/12/14 10:05:37;;;;;;;5.97;5.13;;;10.50;48.20;;;;;;10436058;28;20236;-78
2023/12/14 10:10:40;;;;;;;5.50;5.00;;;10.60;48.10;;;;;;10442110;28;20225;-78
2023/12/14 10:15:46;;;;;;;4.90;4.50;;;10.70;48.40;;;;;;10443026;28;20298;-78
2023/12/14 10:20:49;;;;;;;4.53;4.13;;;10.70;48.50;;;;;;10440905;28;20316;-77
2023/12/14 10:25:54;;;;;;;4.77;4.37;;;10.90;47.90;;;;;;10440992;28;20239;-78
2023/12/14 10:30:58;;;;;;;5.33;4.80;;;11.00;47.70;;;;;;10443509;28;20220;-77
2023/12/14 10:36:02;;;;;;;5.53;4.50;;;11.00;47.20;;;;;;10440029;28;20739;-77
2023/12/14 10:41:07;;;;;;;4.60;4.13;;;11.10;47.60;;;;;;10442285;28;20228;-76
2023/12/14 10:46:12;;;;;;;4.27;3.87;;;11.20;47.40;;;;;;10437880;28;20244;-78
2023/12/14 10:51:18;;;;;;;3.70;3.40;;;11.20;46.90;;;;;;10436560;28;20233;-79
2023/12/14 10:56:21;;;;;;;4.23;3.93;;;11.20;46.90;;;;;;10438290;28;20329;-79
2023/12/14 11:01:27;;;;;;;4.50;4.10;;;11.20;46.90;;;;;;10440631;28;20282;-79
2023/12/14 11:06:32;;;;;;;4.47;4.07;;;11.30;47.00;;;;;;10433877;28;20758;-78
2023/12/14 11:11:43;;;;;;;4.67;4.07;;;11.30;47.00;;;;;;10436557;28;20312;-79
2023/12/14 11:16:49;;;;;;;4.60;4.30;;;11.30;46.20;;;;;;10431402;28;20256;-78
2023/12/14 11:22:14;;;;;;;4.70;4.30;;;11.30;46.60;;;;;;10439738;28;20233;-78
2023/12/14 11:27:21;;;;;;;4.60;4.30;;;11.30;46.10;;;;;;10436705;28;20234;-77
2023/12/14 11:32:28;;;;;;;5.27;4.77;;;11.20;46.50;;;;;;10437334;28;20225;-77
2023/12/14 11:37:34;;;;;;;6.70;6.10;;;11.30;47.00;;;;;;10428946;28;20267;-79
2023/12/14 11:42:38;;;;;;;6.47;5.90;;;11.40;46.70;;;;;;10448198;28;21624;-82
2023/12/14 11:47:43;;;;;;;6.13;5.63;;;11.40;46.60;;;;;;10447686;28;20244;-82
2023/12/14 11:52:46;;;;;;;6.97;6.13;;;11.40;46.60;;;;;;10444052;28;20217;-83
2023/12/14 11:57:51;;;;;;;8.37;7.30;;;11.40;46.80;;;;;;10446080;28;20229;-83
2023/12/14 12:03:08;;;;;;;8.17;6.70;;;11.50;46.50;;;;;;10446259;28;20599;-83
2023/12/14 12:08:13;;;;;;;6.33;5.80;;;11.40;45.20;;;;;;10442743;28;20225;-83
2023/12/14 12:13:17;;;;;;;7.83;6.47;;;11.40;46.10;;;;;;10445197;28;20676;-83
2023/12/14 12:18:22;;;;;;;6.53;5.93;;;11.40;46.50;;;;;;10452958;28;20233;-81
2023/12/14 12:23:25;;;;;;;6.00;5.40;;;11.40;46.10;;;;;;10451774;28;20733;-82
2023/12/14 12:28:31;;;;;;;6.40;5.70;;;11.40;46.60;;;;;;10457900;28;20709;-81
2023/12/14 12:33:37;;;;;;;7.43;6.63;;;11.40;46.40;;;;;;10462258;28;20720;-82
2023/12/14 12:38:41;;;;;;;6.33;5.73;;;11.50;46.20;;;;;;10461073;28;20742;-85
2023/12/14 12:43:44;;;;;;;5.90;5.40;;;11.50;46.20;;;;;;10455953;28;20853;-82
2023/12/14 12:48:51;;;;;;;6.50;5.70;;;11.50;46.50;;;;;;10447195;28;20229;-84
2023/12/14 12:53:55;;;;;;;10.13;6.47;;;11.50;45.80;;;;;;10461045;28;20267;-79
2023/12/14 12:59:14;;;;;;;6.63;6.00;;;11.50;46.00;;;;;;10454599;28;20233;-80
2023/12/14 13:04:23;;;;;;;5.90;5.20;;;11.50;46.10;;;;;;10443549;28;20229;-79
2023/12/14 13:09:26;;;;;;;6.50;5.90;;;11.50;45.80;;;;;;10444470;28;20695;-81
2023/12/14 13:14:30;;;;;;;6.53;6.03;;;11.60;46.00;;;;;;10443456;28;20636;-79
2023/12/14 13:19:35;;;;;;;7.87;6.70;;;11.50;45.90;;;;;;10446277;28;20253;-78
2023/12/14 13:24:54;;;;;;;7.90;7.07;;;11.60;45.90;;;;;;10449228;28;20228;-79
2023/12/14 13:29:57;;;;;;;6.13;5.57;;;11.50;45.50;;;;;;10452560;28;20233;-80
2023/12/14 13:35:02;;;;;;;6.90;6.00;;;11.50;46.20;;;;;;10453174;28;20279;-80
2023/12/14 13:40:09;;;;;;;6.63;6.00;;;11.40;46.10;;;;;;10452922;28;20229;-80
2023/12/14 13:45:15;;;;;;;6.80;5.57;;;11.40;46.30;;;;;;10452627;28;20232;-80
2023/12/14 13:50:19;;;;;;;6.57;5.87;;;11.50;46.50;;;;;;10456892;28;20255;-82
2023/12/14 13:55:23;;;;;;;5.63;5.13;;;11.50;46.30;;;;;;10446852;28;20290;-79
2023/12/14 14:00:26;;;;;;;5.87;5.27;;;11.50;46.50;;;;;;10437122;28;20260;-78
2023/12/14 14:05:31;;;;;;;6.23;5.50;;;11.60;46.30;;;;;;10433364;28;20307;-80
2023/12/14 14:10:34;;;;;;;6.40;5.53;;;11.60;46.10;;;;;;10438644;28;20893;-79
2023/12/14 14:15:37;;;;;;;6.17;5.57;;;11.50;46.10;;;;;;10441072;28;20239;-80
2023/12/14 14:20:42;;;;;;;5.63;5.13;;;11.50;46.30;;;;;;10435226;28;20607;-81
2023/12/14 14:25:46;;;;;;;6.23;5.60;;;11.50;46.20;;;;;;10436325;28;20951;-79
2023/12/14 14:30:49;;;;;;;5.50;5.00;;;11.40;46.50;;;;;;10435200;28;20263;-77
2023/12/14 14:35:54;;;;;;;6.50;5.47;;;11.40;46.40;;;;;;10432136;28;20633;-78
2023/12/14 14:40:57;;;;;;;5.70;5.20;;;11.40;46.40;;;;;;10432129;28;20236;-78
2023/12/14 14:46:01;;;;;;;6.07;5.47;;;11.40;46.50;;;;;;10434132;28;20232;-79
2023/12/14 14:51:06;;;;;;;5.73;4.97;;;11.40;46.60;;;;;;10426881;28;20231;-79
2023/12/14 14:56:12;;;;;;;6.37;4.83;;;11.40;46.30;;;;;;10441765;28;20250;-80
2023/12/14 15:01:16;;;;;;;7.17;4.50;;;11.40;46.30;;;;;;10439799;28;20232;-80
2023/12/14 15:06:22;;;;;;;4.57;4.17;;;11.30;46.20;;;;;;10436473;28;20268;-77
2023/12/14 15:11:26;;;;;;;5.07;4.50;;;11.30;46.20;;;;;;10430768;28;20236;-78
2023/12/14 15:16:29;;;;;;;4.83;4.33;;;11.20;46.40;;;;;;10447030;28;20240;-80
2023/12/14 15:21:33;;;;;;;4.20;3.80;;;11.20;46.60;;;;;;10443390;28;20325;-78
2023/12/14 15:26:37;;;;;;;5.67;4.20;;;11.20;46.40;;;;;;10435939;28;20892;-78
2023/12/14 15:31:41;;;;;;;4.83;4.40;;;11.20;46.30;;;;;;10436584;28;20225;-80
2023/12/14 15:36:46;;;;;;;6.37;5.40;;;11.20;46.30;;;;;;10439198;28;20332;-79
2023/12/14 15:41:49;;;;;;;5.20;4.10;;;11.30;46.20;;;;;;10446501;28;20263;-79
2023/12/14 15:46:52;;;;;;;4.60;4.20;;;11.20;46.20;;;;;;10455310;28;20320;-78
2023/12/14 15:51:57;;;;;;;6.20;4.00;;;11.30;46.30;;;;;;10440140;28;20235;-78
2023/12/14 15:57:00;;;;;;;4.83;4.03;;;11.30;45.90;;;;;;10441154;28;20259;-78
2023/12/14 16:02:04;;;;;;;5.27;3.70;;;11.20;46.00;;;;;;10442565;28;20910;-79
2023/12/14 16:07:08;;;;;;;4.57;4.10;;;11.20;46.10;;;;;;10446184;28;20347;-78
2023/12/14 16:12:12;;;;;;;4.97;4.47;;;11.20;46.00;;;;;;10428980;28;20663;-79
2023/12/14 16:17:15;;;;;;;4.53;4.13;;;11.10;46.00;;;;;;10449655;28;20255;-79
2023/12/14 16:22:20;;;;;;;4.60;4.10;;;11.10;45.90;;;;;;10450554;28;20946;-79
2023/12/14 16:27:23;;;;;;;3.83;3.43;;;11.10;45.70;;;;;;10449716;28;20232;-78
2023/12/14 16:32:26;;;;;;;4.73;3.97;;;11.10;45.80;;;;;;10451390;28;20323;-78
2023/12/14 16:37:31;;;;;;;4.43;4.00;;;11.10;46.00;;;;;;10451191;28;20243;-79
2023/12/14 16:42:34;;;;;;;5.97;4.30;;;11.00;45.90;;;;;;10450693;28;20300;-78
2023/12/14 16:47:38;;;;;;;5.17;4.40;;;11.00;46.00;;;;;;10451109;28;20232;-78
2023/12/14 16:52:45;;;;;;;4.63;4.20;;;11.00;45.80;;;;;;10450749;28;20272;-78
2023/12/14 16:57:48;;;;;;;4.90;4.40;;;11.10;45.50;;;;;;10451317;28;20279;-80
2023/12/14 17:02:51;;;;;;;5.23;4.43;;;11.10;45.80;;;;;;10453084;28;20311;-80
2023/12/14 17:07:56;;;;;;;6.37;5.63;;;11.10;45.70;;;;;;10451092;28;20339;-80
2023/12/14 17:12:59;;;;;;;6.40;5.70;;;11.10;45.50;;;;;;10451988;28;20264;-80
2023/12/14 17:18:03;;;;;;;7.23;6.50;;;11.10;45.60;;;;;;10451551;28;20240;-80
2023/12/14 17:23:07;;;;;;;7.40;6.70;;;11.10;45.50;;;;;;10451975;28;20239;-80
2023/12/14 17:28:11;;;;;;;8.07;7.27;;;11.10;45.50;;;;;;10449470;28;20245;-80
2023/12/14 17:33:14;;;;;;;10.97;8.87;;;11.10;45.50;;;;;;10451513;28;20316;-80
2023/12/14 17:38:18;;;;;;;10.23;8.43;;;11.10;45.60;;;;;;10450776;28;20271;-80
2023/12/14 17:43:22;;;;;;;9.47;8.50;;;11.00;45.70;;;;;;10436553;28;20248;-80
2023/12/14 17:48:25;;;;;;;9.03;7.93;;;10.90;45.80;;;;;;10441379;28;20237;-80
2023/12/14 17:53:29;;;;;;;10.10;9.10;;;10.80;45.90;;;;;;10437205;28;20799;-80
2023/12/14 17:58:33;;;;;;;9.00;8.20;;;10.80;46.00;;;;;;10444936;28;20331;-79
2023/12/14 18:03:36;;;;;;;9.07;7.10;;;10.80;46.10;;;;;;10443929;28;20770;-78
2023/12/14 18:08:41;;;;;;;7.97;7.13;;;10.80;46.20;;;;;;10441296;28;20243;-74
2023/12/14 18:13:44;;;;;;;6.60;5.90;;;10.80;46.20;;;;;;10436950;28;20228;-79
2023/12/14 18:18:47;;;;;;;6.00;5.50;;;10.80;46.00;;;;;;10431792;28;20237;-79
2023/12/14 18:23:53;;;;;;;7.10;6.40;;;10.70;45.90;;;;;;10439558;28;20232;-78
2023/12/14 18:28:56;;;;;;;9.50;6.57;;;10.70;45.90;;;;;;10434949;28;20674;-78
2023/12/14 18:33:59;;;;;;;8.30;7.50;;;10.70;46.20;;;;;;10430738;28;20233;-79
2023/12/14 18:39:04;;;;;;;6.83;6.07;;;10.70;46.30;;;;;;10431805;28;20226;-79
2023/12/14 18:44:07;;;;;;;8.77;7.10;;;10.70;46.30;;;;;;10431475;28;20242;-79
2023/12/14 18:49:11;;;;;;;9.00;8.10;;;10.60;46.20;;;;;;10430755;28;20235;-79
2023/12/14 18:54:16;;;;;;;8.07;7.23;;;10.60;46.30;;;;;;10435702;28;20233;-78
2023/12/14 18:59:19;;;;;;;7.90;7.10;;;10.60;46.40;;;;;;10428226;28;20230;-78
2023/12/14 19:04:22;;;;;;;8.50;7.63;;;10.70;46.50;;;;;;10432825;28;20339;-78
2023/12/14 19:09:27;;;;;;;7.03;6.27;;;10.60;46.40;;;;;;10426730;28;20233;-79
2023/12/14 19:14:30;;;;;;;7.17;6.00;;;10.50;46.30;;;;;;10427741;28;20415;-78
2023/12/14 19:19:33;;;;;;;5.20;4.70;;;10.50;46.50;;;;;;10426020;28;20229;-78
2023/12/14 19:24:39;;;;;;;4.53;4.13;;;10.40;46.40;;;;;;10430690;28;20290;-76
2023/12/14 19:29:42;;;;;;;4.60;3.97;;;10.30;46.50;;;;;;10441517;28;20315;-76
2023/12/14 19:34:45;;;;;;;3.50;3.20;;;10.30;46.40;;;;;;10442176;28;20235;-76
2023/12/14 19:39:50;;;;;;;3.23;3.03;;;10.20;46.50;;;;;;10445305;28;20298;-76
2023/12/14 19:44:53;;;;;;;3.00;2.80;;;10.20;46.40;;;;;;10441529;28;20260;-76
2023/12/14 19:49:59;;;;;;;4.23;3.70;;;10.20;46.30;;;;;;10449737;28;20240;-78
2023/12/14 19:55:06;;;;;;;5.40;4.77;;;10.20;46.20;;;;;;10456086;28;20240;-78
2023/12/14 20:00:10;;;;;;;4.27;3.90;;;10.20;46.50;;;;;;10450238;28;20229;-77
2023/12/14 20:05:14;;;;;;;4.37;3.97;;;10.20;46.40;;;;;;10443522;28;20243;-77
2023/12/14 20:10:19;;;;;;;4.27;3.87;;;10.20;46.30;;;;;;10441786;28;20271;-76
2023/12/14 20:15:23;;;;;;;4.90;3.80;;;10.20;46.50;;;;;;10444416;28;20327;-78
2023/12/14 20:20:26;;;;;;;4.10;3.80;;;10.10;46.50;;;;;;10436176;28;20248;-76
2023/12/14 20:25:33;;;;;;;4.43;4.10;;;10.00;46.60;;;;;;10439961;28;20241;-77
2023/12/14 20:30:36;;;;;;;4.17;3.77;;;10.00;47.00;;;;;;10446211;28;20217;-75
2023/12/14 20:35:39;;;;;;;4.33;4.03;;;9.90;48.00;;;;;;10446025;28;20239;-77
2023/12/14 20:40:43;;;;;;;4.43;4.13;;;9.90;48.10;;;;;;10432369;28;20232;-76
2023/12/14 20:45:47;;;;;;;5.00;4.60;;;9.90;48.30;;;;;;10441203;28;20229;-79
2023/12/14 20:50:50;;;;;;;4.60;4.20;;;9.90;48.20;;;;;;10441604;28;20233;-78
2023/12/14 20:55:55;;;;;;;4.77;4.37;;;9.90;48.10;;;;;;10440142;28;20323;-78
2023/12/14 21:00:59;;;;;;;4.77;4.37;;;10.00;47.30;;;;;;10439716;28;20926;-78
2023/12/14 21:06:03;;;;;;;4.90;4.50;;;9.90;48.00;;;;;;10439256;28;20236;-78
2023/12/14 21:11:07;;;;;;;5.37;4.93;;;10.00;47.00;;;;;;10438126;28;20835;-79
2023/12/14 21:16:11;;;;;;;4.60;4.30;;;10.00;46.80;;;;;;10438944;28;20241;-78
2023/12/14 21:21:15;;;;;;;4.57;4.20;;;10.00;46.60;;;;;;10439884;28;20829;-78
2023/12/14 21:26:20;;;;;;;4.33;4.03;;;10.00;46.60;;;;;;10448067;28;20247;-79
2023/12/14 21:31:24;;;;;;;4.10;3.80;;;10.00;46.60;;;;;;10480680;28;20411;-81
2023/12/14 21:36:27;;;;;;;4.73;4.40;;;10.00;46.60;;;;;;10483475;28;20239;-78
2023/12/14 21:41:31;;;;;;;5.13;4.70;;;10.00;46.50;;;;;;10481979;28;20981;-79
2023/12/14 21:46:35;;;;;;;6.50;5.90;;;10.10;46.30;;;;;;10479187;28;20619;-79
2023/12/14 21:51:39;;;;;;;5.50;5.03;;;10.10;46.20;;;;;;10480045;28;20726;-81
2023/12/14 21:56:43;;;;;;;4.67;3.90;;;10.10;46.20;;;;;;10481668;28;20240;-80
2023/12/14 22:01:46;;;;;;;4.50;4.20;;;10.10;46.00;;;;;;10479962;28;20952;-79
2023/12/14 22:06:51;;;;;;;4.10;3.80;;;10.00;45.90;;;;;;10479332;28;20244;-79
2023/12/14 22:11:56;;;;;;;4.67;4.27;;;10.00;45.90;;;;;;10477182;28;20826;-79
2023/12/14 22:17:00;;;;;;;4.33;4.03;;;10.00;45.90;;;;;;10472985;28;20237;-78
2023/12/14 22:22:04;;;;;;;4.57;4.27;;;10.00;45.90;;;;;;10436636;28;20237;-79
2023/12/14 22:27:08;;;;;;;4.50;4.10;;;10.00;46.00;;;;;;10438887;28;20287;-79
2023/12/14 22:32:11;;;;;;;4.80;4.40;;;10.00;45.90;;;;;;10440842;28;20304;-78
2023/12/14 22:37:15;;;;;;;4.67;4.27;;;9.90;46.80;;;;;;10440353;28;20248;-79
2023/12/14 22:42:19;;;;;;;4.93;4.53;;;9.90;46.70;;;;;;10438809;28;20962;-79
2023/12/14 22:47:23;;;;;;;4.67;4.27;;;9.90;46.70;;;;;;10437866;28;20351;-79
2023/12/14 22:52:27;;;;;;;5.30;4.90;;;9.80;47.00;;;;;;10435861;28;20673;-79
2023/12/14 22:57:32;;;;;;;4.70;4.30;;;9.80;47.20;;;;;;10437267;28;20623;-79
2023/12/14 23:02:35;;;;;;;4.43;4.03;;;9.80;46.90;;;;;;10438131;28;20241;-79
2023/12/14 23:07:41;;;;;;;3.90;3.60;;;9.70;46.80;;;;;;10436365;28;20240;-79
2023/12/14 23:12:45;;;;;;;3.73;3.43;;;9.60;46.90;;;;;;10437509;28;20778;-80
2023/12/14 23:17:53;;;;;;;2.80;2.60;;;9.50;46.90;;;;;;10437198;28;20232;-79
2023/12/14 23:22:57;;;;;;;2.60;2.50;;;9.50;46.90;;;;;;10434904;28;20260;-78
2023/12/14 23:28:01;;;;;;;2.53;2.33;;;9.40;46.90;;;;;;10436905;28;20590;-79
2023/12/14 23:33:04;;;;;;;2.77;2.53;;;9.40;46.70;;;;;;10438623;28;20312;-78
2023/12/14 23:38:08;;;;;;;2.30;2.20;;;9.30;46.80;;;;;;10438418;28;20252;-79
2023/12/14 23:43:12;;;;;;;2.47;2.30;;;9.30;46.80;;;;;;10438922;28;20237;-81
2023/12/14 23:48:16;;;;;;;2.60;2.40;;;9.30;46.70;;;;;;10437268;28;20241;-79
2023/12/14 23:53:19;;;;;;;2.73;2.53;;;9.30;46.80;;;;;;10436504;28;20268;-79
2023/12/14 23:58:24;;;;;;;2.60;2.40;;;9.30;46.70;;;;;;10435850;28;20848;-79
